Time;durP1;ratioP1;P1;durP2;ratioP2;P2;SDS_P1;SDS_P2;PMS_P1;PMS_P2;Temp;Humidity;BMP_temperature;BMP_pressure;BME280_temperature;BME280_humidity;BME280_pressure;Samples;Min_cycle;Max_cycle;Signal;HPM_P1;HPM_P2
2023/05/13 00:01:40;;;;;;;13.82;10.63;;;;;;;;;;5084760;28;20058;-80
2023/05/13 00:04:07;;;;;;;14.30;10.75;;;;;;;;;;5103445;27;20048;-80
2023/05/13 00:06:33;;;;;;;13.13;9.68;;;;;;;;;;5074852;28;20040;-78
2023/05/13 00:08:59;;;;;;;14.75;10.50;;;;;;;;;;5079814;28;20049;-80
2023/05/13 00:11:25;;;;;;;18.08;10.00;;;;;;;;;;5078366;28;20619;-82
2023/05/13 00:13:52;;;;;;;12.60;9.70;;;;;;;;;;5077256;28;20040;-80
2023/05/13 00:16:17;;;;;;;13.27;10.70;;;;;;;;;;5078967;28;20189;-79
2023/05/13 00:18:44;;;;;;;12.68;10.50;;;;;;;;;;5085714;28;20560;-78
2023/05/13 00:21:10;;;;;;;12.88;10.57;;;;;;;;;;5078511;28;20050;-78
2023/05/13 00:23:36;;;;;;;12.35;10.40;;;;;;;;;;5077775;28;20043;-80
2023/05/13 00:26:02;;;;;;;12.18;10.48;;;;;;;;;;5081229;28;20499;-79
2023/05/13 00:28:28;;;;;;;12.90;11.10;;;;;;;;;;5070702;28;20569;-81
2023/05/13 00:30:54;;;;;;;14.35;10.52;;;;;;;;;;5077190;28;20051;-79
2023/05/13 00:33:20;;;;;;;14.65;10.65;;;;;;;;;;5078064;28;20718;-81
2023/05/13 00:35:46;;;;;;;12.65;10.65;;;;;;;;;;5074942;28;20044;-79
2023/05/13 00:38:12;;;;;;;14.88;10.68;;;;;;;;;;5081692;28;20051;-79
2023/05/13 00:40:38;;;;;;;17.95;10.90;;;;;;;;;;5107231;27;20043;-80
2023/05/13 00:43:05;;;;;;;13.63;10.68;;;;;;;;;;5075382;28;20159;-80
2023/05/13 00:45:31;;;;;;;13.13;10.57;;;;;;;;;;5068866;28;20495;-80
2023/05/13 00:47:58;;;;;;;13.90;11.18;;;;;;;;;;5079416;28;20051;-78
2023/05/13 00:50:24;;;;;;;13.60;10.65;;;;;;;;;;5078567;28;20106;-80
2023/05/13 00:52:50;;;;;;;13.15;11.25;;;;;;;;;;5076041;28;20402;-80
2023/05/13 00:55:16;;;;;;;12.48;10.77;;;;;;;;;;5076009;28;20048;-80
2023/05/13 00:57:43;;;;;;;13.77;11.48;;;;;;;;;;5076154;28;20042;-78
2023/05/13 01:00:09;;;;;;;16.42;11.60;;;;;;;;;;5085948;28;20025;-81
2023/05/13 01:02:45;;;;;;;18.70;11.50;;;;;;;;;;5072262;28;20101;-80
2023/05/13 01:05:29;;;;;;;13.95;10.93;;;;;;;;;;5083950;28;20055;-80
2023/05/13 01:08:03;;;;;;;16.42;11.35;;;;;;;;;;5077208;28;20047;-80
2023/05/13 01:10:35;;;;;;;15.60;10.95;;;;;;;;;;5112878;27;20052;-81
2023/05/13 01:13:04;;;;;;;15.68;11.35;;;;;;;;;;5080010;28;20044;-80
2023/05/13 01:15:30;;;;;;;;;;;;;;;;;;5077645;28;20056;-79
2023/05/13 01:17:59;;;;;;;17.60;11.20;;;;;;;;;;5075988;28;19930;-79
2023/05/13 01:20:25;;;;;;;;;;;;;;;;;;5077364;28;20032;-80
2023/05/13 01:22:51;;;;;;;12.95;11.20;;;;;;;;;;5084519;28;19923;-80
2023/05/13 01:25:17;;;;;;;14.95;11.50;;;;;;;;;;5077582;28;20047;-81
2023/05/13 01:27:43;;;;;;;14.55;11.57;;;;;;;;;;5078065;28;20028;-78
2023/05/13 01:30:09;;;;;;;13.90;11.65;;;;;;;;;;5106816;27;20096;-80
2023/05/13 01:32:36;;;;;;;15.25;11.98;;;;;;;;;;5071258;28;20154;-79
2023/05/13 01:35:02;;;;;;;15.85;12.25;;;;;;;;;;5073473;28;20068;-80
2023/05/13 01:37:29;;;;;;;12.05;10.73;;;;;;;;;;5075520;28;20441;-80
2023/05/13 01:39:55;;;;;;;14.00;11.75;;;;;;;;;;5074994;28;20055;-79
2023/05/13 01:42:22;;;;;;;18.52;12.10;;;;;;;;;;5070772;28;20044;-77
2023/05/13 01:44:50;;;;;;;13.40;10.98;;;;;;;;;;5055804;28;20060;-77
2023/05/13 01:47:16;;;;;;;17.42;11.88;;;;;;;;;;5075273;28;20130;-79
2023/05/13 01:49:42;;;;;;;15.82;11.55;;;;;;;;;;5072116;28;20137;-79
2023/05/13 01:52:08;;;;;;;13.15;11.70;;;;;;;;;;5076641;28;20156;-81
2023/05/13 01:54:34;;;;;;;16.20;11.55;;;;;;;;;;5072449;28;20147;-78
2023/05/13 01:57:00;;;;;;;15.35;11.77;;;;;;;;;;5074519;28;20631;-80
2023/05/13 01:59:26;;;;;;;16.98;11.82;;;;;;;;;;5071833;28;20047;-78
2023/05/13 02:01:52;;;;;;;16.10;12.38;;;;;;;;;;5074623;28;20040;-79
2023/05/13 02:04:18;;;;;;;14.00;11.77;;;;;;;;;;5071575;28;20059;-80
2023/05/13 02:06:44;;;;;;;15.55;12.50;;;;;;;;;;5075129;28;20135;-79
2023/05/13 02:09:10;;;;;;;18.15;12.82;;;;;;;;;;5075178;28;20083;-78
2023/05/13 02:11:36;;;;;;;15.90;12.98;;;;;;;;;;5073095;28;20071;-77
2023/05/13 02:14:02;;;;;;;17.70;12.57;;;;;;;;;;5076125;28;20052;-80
2023/05/13 02:16:29;;;;;;;15.75;12.25;;;;;;;;;;5071511;28;20046;-78
2023/05/13 02:18:55;;;;;;;15.73;13.05;;;;;;;;;;5094252;27;20045;-78
2023/05/13 02:21:21;;;;;;;17.88;13.10;;;;;;;;;;5077789;28;20126;-80
2023/05/13 02:23:48;;;;;;;17.80;13.52;;;;;;;;;;5079699;28;20092;-78
2023/05/13 02:26:14;;;;;;;16.00;13.63;;;;;;;;;;5077929;28;20047;-78
2023/05/13 02:28:40;;;;;;;19.85;13.95;;;;;;;;;;5072945;28;20070;-79
2023/05/13 02:31:06;;;;;;;17.95;13.65;;;;;;;;;;5080511;28;20139;-77
2023/05/13 02:33:32;;;;;;;15.10;13.43;;;;;;;;;;5084366;28;20074;-78
2023/05/13 02:35:58;;;;;;;17.90;13.32;;;;;;;;;;5079558;28;20403;-78
2023/05/13 02:38:24;;;;;;;16.02;14.35;;;;;;;;;;5087308;28;20055;-80
2023/05/13 02:40:50;;;;;;;17.80;13.63;;;;;;;;;;5069298;28;20049;-78
2023/05/13 02:43:16;;;;;;;19.08;14.00;;;;;;;;;;5071805;28;20060;-79
2023/05/13 02:45:42;;;;;;;20.38;14.60;;;;;;;;;;5057720;28;20051;-78
2023/05/13 02:48:09;;;;;;;15.57;14.00;;;;;;;;;;5077631;28;20048;-77
2023/05/13 02:50:36;;;;;;;16.30;14.20;;;;;;;;;;5081856;28;20047;-79
2023/05/13 02:53:02;;;;;;;17.67;14.20;;;;;;;;;;5083857;28;20058;-78
2023/05/13 02:55:28;;;;;;;20.60;15.20;;;;;;;;;;5079781;28;20114;-78
2023/05/13 02:57:55;;;;;;;19.48;14.82;;;;;;;;;;5085518;28;20101;-80
2023/05/13 03:00:21;;;;;;;18.83;14.90;;;;;;;;;;5077497;28;20055;-79
2023/05/13 03:02:47;;;;;;;17.80;14.57;;;;;;;;;;5084394;28;20044;-78
2023/05/13 03:05:13;;;;;;;18.08;14.95;;;;;;;;;;5077920;28;20060;-80
2023/05/13 03:07:39;;;;;;;20.58;15.43;;;;;;;;;;5086846;28;20043;-79
2023/05/13 03:10:05;;;;;;;21.20;15.45;;;;;;;;;;5086497;28;21440;-78
2023/05/13 03:12:32;;;;;;;19.80;15.82;;;;;;;;;;5082339;28;20126;-78
2023/05/13 03:14:58;;;;;;;20.90;16.25;;;;;;;;;;5071139;28;20040;-79
2023/05/13 03:17:24;;;;;;;19.38;15.48;;;;;;;;;;5079241;28;20078;-79
2023/05/13 03:19:50;;;;;;;20.70;15.85;;;;;;;;;;5081385;28;20047;-78
2023/05/13 03:22:16;;;;;;;19.05;16.17;;;;;;;;;;5081567;28;20044;-78
2023/05/13 03:24:43;;;;;;;18.27;16.27;;;;;;;;;;5099372;27;20050;-79
2023/05/13 03:27:09;;;;;;;19.65;16.08;;;;;;;;;;5080347;28;20504;-78
2023/05/13 03:29:35;;;;;;;20.55;16.67;;;;;;;;;;5080888;28;20040;-80
2023/05/13 03:32:01;;;;;;;18.83;16.77;;;;;;;;;;5066289;28;20046;-79
2023/05/13 03:34:27;;;;;;;21.17;17.33;;;;;;;;;;5113202;27;20138;-79
2023/05/13 03:36:53;;;;;;;23.00;17.15;;;;;;;;;;5079795;28;20092;-79
2023/05/13 03:39:19;;;;;;;22.50;17.50;;;;;;;;;;5084478;28;20036;-78
2023/05/13 03:41:45;;;;;;;26.80;18.50;;;;;;;;;;5088840;28;20079;-79
2023/05/13 03:44:11;;;;;;;21.55;18.27;;;;;;;;;;5075036;28;20035;-77
2023/05/13 03:46:37;;;;;;;23.17;17.60;;;;;;;;;;5082016;28;20539;-78
2023/05/13 03:49:03;;;;;;;20.25;18.08;;;;;;;;;;5078592;28;20466;-81
2023/05/13 03:51:30;;;;;;;23.90;17.30;;;;;;;;;;5085046;28;20126;-81
2023/05/13 03:53:56;;;;;;;23.02;17.98;;;;;;;;;;5077112;28;20059;-79
2023/05/13 03:56:22;;;;;;;19.05;17.05;;;;;;;;;;5076369;28;20044;-79
2023/05/13 03:58:47;;;;;;;24.77;17.98;;;;;;;;;;5091040;27;20067;-80
2023/05/13 04:01:14;;;;;;;19.67;17.48;;;;;;;;;;5078239;28;20582;-78
2023/05/13 04:03:43;;;;;;;21.02;18.25;;;;;;;;;;5077278;28;20066;-79
2023/05/13 04:06:09;;;;;;;21.90;18.02;;;;;;;;;;5083167;28;20040;-78
2023/05/13 04:08:35;;;;;;;23.40;18.33;;;;;;;;;;5071783;28;20053;-78
2023/05/13 04:11:00;;;;;;;24.70;18.27;;;;;;;;;;5057130;28;20066;-78
2023/05/13 04:13:27;;;;;;;21.42;19.15;;;;;;;;;;5072434;28;20051;-78
2023/05/13 04:15:54;;;;;;;20.83;18.58;;;;;;;;;;5085284;28;20923;-79
2023/05/13 04:18:20;;;;;;;21.83;18.27;;;;;;;;;;5073802;28;20032;-78
2023/05/13 04:20:46;;;;;;;20.88;17.75;;;;;;;;;;5078975;28;20412;-80
2023/05/13 04:23:12;;;;;;;22.55;18.67;;;;;;;;;;5058400;28;20051;-79
2023/05/13 04:25:38;;;;;;;25.17;19.17;;;;;;;;;;5065421;28;20043;-78
2023/05/13 04:28:05;;;;;;;22.92;18.77;;;;;;;;;;5073640;28;20275;-79
2023/05/13 04:30:31;;;;;;;21.70;17.67;;;;;;;;;;5081374;28;20141;-78
2023/05/13 04:32:56;;;;;;;24.27;18.52;;;;;;;;;;5074965;28;20046;-79
2023/05/13 04:35:22;;;;;;;26.33;19.02;;;;;;;;;;5083436;28;20036;-78
2023/05/13 04:37:48;;;;;;;21.25;18.23;;;;;;;;;;5083170;28;20043;-78
2023/05/13 04:40:15;;;;;;;21.33;17.48;;;;;;;;;;5073512;28;20055;-78
2023/05/13 04:42:41;;;;;;;20.42;17.65;;;;;;;;;;5083997;28;20117;-78
2023/05/13 04:45:07;;;;;;;23.17;17.42;;;;;;;;;;5080980;28;20091;-78
2023/05/13 04:47:34;;;;;;;26.55;17.67;;;;;;;;;;5080503;28;20051;-78
2023/05/13 04:50:00;;;;;;;20.55;17.38;;;;;;;;;;5079933;28;20055;-77
2023/05/13 04:52:26;;;;;;;24.88;17.13;;;;;;;;;;5079698;28;20156;-78
2023/05/13 04:54:52;;;;;;;18.77;16.88;;;;;;;;;;5082962;28;20075;-78
2023/05/13 04:57:18;;;;;;;22.13;17.33;;;;;;;;;;5077056;28;20147;-77
2023/05/13 04:59:44;;;;;;;22.85;17.73;;;;;;;;;;5081379;28;20050;-79
2023/05/13 05:02:10;;;;;;;22.50;17.08;;;;;;;;;;5079698;28;20036;-80
2023/05/13 05:04:36;;;;;;;20.52;16.13;;;;;;;;;;5078471;28;20086;-80
2023/05/13 05:07:02;;;;;;;24.52;16.42;;;;;;;;;;5081540;28;20135;-78
2023/05/13 05:09:29;;;;;;;23.75;16.77;;;;;;;;;;5081078;28;20035;-79
2023/05/13 05:11:55;;;;;;;20.88;16.35;;;;;;;;;;5077047;28;20050;-78
2023/05/13 05:14:21;;;;;;;23.08;16.90;;;;;;;;;;5084821;28;20048;-79
2023/05/13 05:16:46;;;;;;;20.67;15.98;;;;;;;;;;5079257;28;20060;-79
2023/05/13 05:19:13;;;;;;;18.98;16.40;;;;;;;;;;5076604;28;20130;-78
2023/05/13 05:21:39;;;;;;;21.58;15.85;;;;;;;;;;5109714;27;20059;-79
2023/05/13 05:24:05;;;;;;;23.33;15.73;;;;;;;;;;5078580;28;20051;-79
2023/05/13 05:26:31;;;;;;;22.27;15.48;;;;;;;;;;5083514;28;20070;-80
2023/05/13 05:28:57;;;;;;;19.70;14.63;;;;;;;;;;5074711;28;20523;-78
2023/05/13 05:31:25;;;;;;;24.77;15.20;;;;;;;;;;5076648;28;20048;-78
2023/05/13 05:33:51;;;;;;;20.52;15.40;;;;;;;;;;5080838;28;20145;-80
2023/05/13 05:36:17;;;;;;;21.85;15.30;;;;;;;;;;5057412;28;20047;-79
2023/05/13 05:38:43;;;;;;;20.95;14.63;;;;;;;;;;5101283;27;20096;-79
2023/05/13 05:41:09;;;;;;;17.50;14.82;;;;;;;;;;5073014;28;20563;-80
2023/05/13 05:43:35;;;;;;;17.27;13.90;;;;;;;;;;5095977;27;20047;-81
2023/05/13 05:46:01;;;;;;;17.77;14.25;;;;;;;;;;5073494;28;20040;-80
2023/05/13 05:48:28;;;;;;;19.25;15.15;;;;;;;;;;5104467;27;20048;-78
2023/05/13 05:50:55;;;;;;;20.63;14.27;;;;;;;;;;5075492;28;20051;-80
2023/05/13 05:53:21;;;;;;;25.23;14.40;;;;;;;;;;5083333;28;20457;-79
2023/05/13 05:55:47;;;;;;;17.90;14.65;;;;;;;;;;5077197;28;20055;-78
2023/05/13 05:58:16;;;;;;;21.23;14.75;;;;;;;;;;5069195;28;20045;-79
2023/05/13 06:00:42;;;;;;;21.35;14.63;;;;;;;;;;5065447;28;20044;-79
2023/05/13 06:03:08;;;;;;;20.95;14.27;;;;;;;;;;5056053;28;20043;-78
2023/05/13 06:05:34;;;;;;;24.65;14.77;;;;;;;;;;5073475;28;20028;-79
2023/05/13 06:08:00;;;;;;;17.58;14.52;;;;;;;;;;5085080;28;20043;-79
2023/05/13 06:10:26;;;;;;;22.67;13.60;;;;;;;;;;5073989;28;20070;-78
2023/05/13 06:12:52;;;;;;;20.95;13.45;;;;;;;;;;5077908;28;20074;-79
2023/05/13 06:15:18;;;;;;;17.00;13.75;;;;;;;;;;5078733;28;20521;-79
2023/05/13 06:17:44;;;;;;;17.52;14.05;;;;;;;;;;5083272;28;20048;-78
2023/05/13 06:20:11;;;;;;;20.38;13.52;;;;;;;;;;5078657;28;20048;-79
2023/05/13 06:22:37;;;;;;;17.35;13.48;;;;;;;;;;5082038;28;20047;-80
2023/05/13 06:25:03;;;;;;;18.17;13.95;;;;;;;;;;5078211;28;20044;-81
2023/05/13 06:27:29;;;;;;;17.10;13.13;;;;;;;;;;5075766;28;20054;-79
2023/05/13 06:29:55;;;;;;;17.15;12.57;;;;;;;;;;5081934;28;20049;-78
2023/05/13 06:32:21;;;;;;;19.08;12.98;;;;;;;;;;5069858;28;20080;-78
2023/05/13 06:34:47;;;;;;;16.42;12.20;;;;;;;;;;5069724;28;20123;-81
2023/05/13 06:37:13;;;;;;;16.50;11.55;;;;;;;;;;5082200;28;20626;-80
2023/05/13 06:39:39;;;;;;;13.45;11.30;;;;;;;;;;5079328;28;20344;-79
2023/05/13 06:42:05;;;;;;;15.68;10.98;;;;;;;;;;5086313;28;20047;-79
2023/05/13 06:44:31;;;;;;;14.07;10.40;;;;;;;;;;5084722;28;20036;-81
2023/05/13 06:46:57;;;;;;;15.23;9.85;;;;;;;;;;5079437;28;20040;-79
2023/05/13 06:49:23;;;;;;;16.13;9.50;;;;;;;;;;5080106;28;20595;-80
2023/05/13 06:51:50;;;;;;;13.55;8.90;;;;;;;;;;5076193;28;20564;-80
2023/05/13 06:54:16;;;;;;;18.95;9.10;;;;;;;;;;5074492;28;20052;-79
2023/05/13 06:56:42;;;;;;;11.40;8.80;;;;;;;;;;5082286;28;20047;-79
2023/05/13 06:59:08;;;;;;;12.82;8.38;;;;;;;;;;5073342;28;20047;-78
2023/05/13 07:01:34;;;;;;;13.57;7.80;;;;;;;;;;5079853;28;20028;-80
2023/05/13 07:04:00;;;;;;;12.60;8.73;;;;;;;;;;5074716;28;20056;-80
2023/05/13 07:06:26;;;;;;;12.68;7.28;;;;;;;;;;5085705;28;20696;-78
2023/05/13 07:08:52;;;;;;;13.70;7.78;;;;;;;;;;5083108;28;20127;-80
2023/05/13 07:11:18;;;;;;;11.23;7.82;;;;;;;;;;5084663;28;20051;-79
2023/05/13 07:13:44;;;;;;;12.10;7.38;;;;;;;;;;5079413;28;20134;-80
2023/05/13 07:16:10;;;;;;;10.57;7.03;;;;;;;;;;5051396;28;20105;-81
2023/05/13 07:18:36;;;;;;;10.45;7.07;;;;;;;;;;5077766;28;20042;-79
2023/05/13 07:21:02;;;;;;;12.20;7.10;;;;;;;;;;5074744;28;20047;-79
2023/05/13 07:23:28;;;;;;;13.48;7.30;;;;;;;;;;5084798;28;20075;-79
2023/05/13 07:25:55;;;;;;;13.98;6.82;;;;;;;;;;5082007;28;20044;-78
2023/05/13 07:28:21;;;;;;;10.40;6.65;;;;;;;;;;5080122;28;20492;-78
2023/05/13 07:30:47;;;;;;;9.30;6.88;;;;;;;;;;5080162;28;20050;-78
2023/05/13 07:33:13;;;;;;;11.25;6.30;;;;;;;;;;5080658;28;20056;-77
2023/05/13 07:35:39;;;;;;;9.48;5.78;;;;;;;;;;5060119;28;20168;-80
2023/05/13 07:38:07;;;;;;;8.55;5.72;;;;;;;;;;5082617;28;20039;-78
2023/05/13 07:40:33;;;;;;;10.00;5.90;;;;;;;;;;5072182;28;20108;-80
2023/05/13 07:42:59;;;;;;;16.35;6.05;;;;;;;;;;5074376;28;20182;-78
2023/05/13 07:45:26;;;;;;;9.45;6.22;;;;;;;;;;5078396;28;20040;-78
2023/05/13 07:47:52;;;;;;;13.85;6.70;;;;;;;;;;5079824;28;20048;-78
2023/05/13 07:50:18;;;;;;;13.35;5.82;;;;;;;;;;5077817;28;20082;-79
2023/05/13 07:52:47;;;;;;;10.13;5.90;;;;;;;;;;5089125;27;20044;-78
2023/05/13 07:55:13;;;;;;;11.73;5.75;;;;;;;;;;5087254;28;20051;-77
2023/05/13 07:57:40;;;;;;;9.30;5.80;;;;;;;;;;5084536;28;20044;-77
2023/05/13 08:00:06;;;;;;;9.02;5.10;;;;;;;;;;5087520;27;20365;-78
2023/05/13 08:02:33;;;;;;;6.78;5.78;;;;;;;;;;5080621;28;20386;-78
2023/05/13 08:05:00;;;;;;;8.60;5.53;;;;;;;;;;5076019;28;20044;-77
2023/05/13 08:07:26;;;;;;;11.35;6.05;;;;;;;;;;5084809;28;20094;-78
2023/05/13 08:09:52;;;;;;;12.55;5.30;;;;;;;;;;5078215;28;21962;-77
2023/05/13 08:12:18;;;;;;;9.55;5.32;;;;;;;;;;5080946;28;20103;-78
2023/05/13 08:14:44;;;;;;;7.68;5.40;;;;;;;;;;5077186;28;20412;-77
2023/05/13 08:17:10;;;;;;;15.27;5.10;;;;;;;;;;5079471;28;20108;-78
2023/05/13 08:19:37;;;;;;;16.90;5.60;;;;;;;;;;5079648;28;20107;-78
2023/05/13 08:22:03;;;;;;;10.65;5.82;;;;;;;;;;5078404;28;20052;-77
2023/05/13 08:24:29;;;;;;;7.97;5.13;;;;;;;;;;5080033;28;20415;-77
2023/05/13 08:26:55;;;;;;;12.85;6.68;;;;;;;;;;5078711;28;20032;-77
2023/05/13 08:29:21;;;;;;;13.20;5.30;;;;;;;;;;5078575;28;20569;-77
2023/05/13 08:31:47;;;;;;;10.40;5.32;;;;;;;;;;5106326;27;20051;-78
2023/05/13 08:34:13;;;;;;;12.00;5.15;;;;;;;;;;5056994;28;20075;-77
2023/05/13 08:36:39;;;;;;;14.00;5.35;;;;;;;;;;5077874;28;20048;-78
2023/05/13 08:39:06;;;;;;;13.82;5.47;;;;;;;;;;5075934;28;20415;-77
2023/05/13 08:41:33;;;;;;;13.80;5.18;;;;;;;;;;5080420;28;20044;-77
2023/05/13 08:43:59;;;;;;;11.30;5.65;;;;;;;;;;5072619;28;20140;-77
2023/05/13 08:46:27;;;;;;;12.70;6.40;;;;;;;;;;5058302;28;20062;-78
2023/05/13 08:48:55;;;;;;;10.15;6.15;;;;;;;;;;5079399;28;20052;-78
2023/05/13 08:51:21;;;;;;;13.30;5.33;;;;;;;;;;5076498;28;20059;-76
2023/05/13 08:53:47;;;;;;;7.43;4.93;;;;;;;;;;5093929;27;20345;-78
2023/05/13 08:56:13;;;;;;;11.55;5.57;;;;;;;;;;5077890;28;20056;-77
2023/05/13 08:58:40;;;;;;;16.73;5.97;;;;;;;;;;5086062;28;20491;-77
2023/05/13 09:01:07;;;;;;;10.75;5.60;;;;;;;;;;5079306;28;20382;-77
2023/05/13 09:03:34;;;;;;;12.52;6.03;;;;;;;;;;5094195;27;20122;-78
2023/05/13 09:06:01;;;;;;;11.30;5.30;;;;;;;;;;5076771;28;20047;-77
2023/05/13 09:08:27;;;;;;;9.00;4.82;;;;;;;;;;5069069;28;20398;-77
2023/05/13 09:10:53;;;;;;;10.45;4.82;;;;;;;;;;5080036;28;20097;-77
2023/05/13 09:13:19;;;;;;;6.95;4.28;;;;;;;;;;5077670;28;20140;-78
2023/05/13 09:15:45;;;;;;;6.38;4.22;;;;;;;;;;5059594;28;20068;-77
2023/05/13 09:18:12;;;;;;;5.68;3.42;;;;;;;;;;5085475;28;20051;-78
2023/05/13 09:20:38;;;;;;;9.55;3.70;;;;;;;;;;5079087;28;20044;-77
2023/05/13 09:23:09;;;;;;;9.50;3.40;;;;;;;;;;5072284;28;20582;-77
2023/05/13 09:25:36;;;;;;;8.65;3.17;;;;;;;;;;5076169;28;20048;-77
2023/05/13 09:28:03;;;;;;;5.55;3.13;;;;;;;;;;5074037;28;20052;-78
2023/05/13 09:30:30;;;;;;;7.25;3.50;;;;;;;;;;5062217;28;20078;-79
2023/05/13 09:33:09;;;;;;;13.20;3.80;;;;;;;;;;5080036;28;20127;-81
2023/05/13 09:35:36;;;;;;;9.98;3.60;;;;;;;;;;5091822;27;20044;-80
2023/05/13 09:38:11;;;;;;;7.82;4.20;;;;;;;;;;5076828;28;20046;-79
2023/05/13 09:40:37;;;;;;;7.53;3.75;;;;;;;;;;5059211;28;20679;-78
2023/05/13 09:43:06;;;;;;;11.25;4.50;;;;;;;;;;5092559;27;20515;-79
2023/05/13 09:45:32;;;;;;;9.45;4.75;;;;;;;;;;5058057;28;20036;-77
2023/05/13 09:47:58;;;;;;;11.77;4.50;;;;;;;;;;5079483;28;20127;-77
2023/05/13 09:50:24;;;;;;;10.60;5.03;;;;;;;;;;5060633;28;20118;-77
2023/05/13 09:52:50;;;;;;;10.60;4.72;;;;;;;;;;5087903;27;20130;-77
2023/05/13 09:55:16;;;;;;;11.35;4.55;;;;;;;;;;5070408;28;20056;-78
2023/05/13 09:57:42;;;;;;;10.30;4.53;;;;;;;;;;5065437;28;20178;-77
2023/05/13 10:00:08;;;;;;;13.85;5.25;;;;;;;;;;5057738;28;20047;-78
2023/05/13 10:02:34;;;;;;;6.57;3.83;;;;;;;;;;5078280;28;20131;-77
2023/05/13 10:05:01;;;;;;;20.00;4.32;;;;;;;;;;5076394;28;20044;-75
2023/05/13 10:07:27;;;;;;;7.80;4.35;;;;;;;;;;5078588;28;20054;-76
2023/05/13 10:09:54;;;;;;;10.45;4.40;;;;;;;;;;5073981;28;20131;-77
2023/05/13 10:12:24;;;;;;;6.72;3.70;;;;;;;;;;5075426;28;20056;-76
2023/05/13 10:14:51;;;;;;;5.80;4.05;;;;;;;;;;5077904;28;20048;-78
2023/05/13 10:17:18;;;;;;;8.70;3.85;;;;;;;;;;5076804;28;20151;-76
2023/05/13 10:19:45;;;;;;;10.35;4.03;;;;;;;;;;5075778;28;20071;-77
2023/05/13 10:22:11;;;;;;;6.40;3.50;;;;;;;;;;5076959;28;20043;-76
2023/05/13 10:24:38;;;;;;;8.48;3.53;;;;;;;;;;5072679;28;20036;-79
2023/05/13 10:27:06;;;;;;;8.63;3.40;;;;;;;;;;5076100;28;20090;-78
2023/05/13 10:29:33;;;;;;;7.35;3.75;;;;;;;;;;5073259;28;20052;-81
2023/05/13 10:32:00;;;;;;;9.30;4.30;;;;;;;;;;5070249;28;20052;-77
2023/05/13 10:34:26;;;;;;;5.75;3.53;;;;;;;;;;5072816;28;20040;-76
2023/05/13 10:37:07;;;;;;;7.15;3.85;;;;;;;;;;5069380;28;20123;-76
2023/05/13 10:39:42;;;;;;;10.63;3.80;;;;;;;;;;5087112;28;20183;-78
2023/05/13 10:42:08;;;;;;;5.20;3.65;;;;;;;;;;5078504;28;20125;-78
2023/05/13 10:44:34;;;;;;;8.35;3.97;;;;;;;;;;5076101;28;20036;-76
2023/05/13 10:47:04;;;;;;;9.45;3.70;;;;;;;;;;5106272;27;20055;-77
2023/05/13 10:49:33;;;;;;;8.30;4.10;;;;;;;;;;5070076;28;20052;-78
2023/05/13 10:52:07;;;;;;;11.57;4.15;;;;;;;;;;5074004;28;20080;-75
2023/05/13 10:54:37;;;;;;;10.57;4.35;;;;;;;;;;5079055;28;20044;-79
2023/05/13 10:57:03;;;;;;;8.35;3.42;;;;;;;;;;5090084;28;20106;-77
2023/05/13 10:59:29;;;;;;;8.30;3.63;;;;;;;;;;5076473;28;20147;-76
2023/05/13 11:01:56;;;;;;;7.05;3.28;;;;;;;;;;5072877;28;20628;-76
2023/05/13 11:04:22;;;;;;;9.02;3.30;;;;;;;;;;5085335;28;20622;-75
2023/05/13 11:06:48;;;;;;;6.70;3.38;;;;;;;;;;5072662;28;20568;-76
2023/05/13 11:09:28;;;;;;;6.65;3.13;;;;;;;;;;5065337;28;20487;-76
2023/05/13 11:11:55;;;;;;;10.50;2.95;;;;;;;;;;5071838;28;20093;-76
2023/05/13 11:14:22;;;;;;;10.45;3.65;;;;;;;;;;5076325;28;20052;-76
2023/05/13 11:16:53;;;;;;;8.50;3.05;;;;;;;;;;5080687;28;20047;-75
2023/05/13 11:19:29;;;;;;;11.88;4.07;;;;;;;;;;5055381;28;20044;-76
2023/05/13 11:21:57;;;;;;;11.70;3.58;;;;;;;;;;5091585;27;20044;-75
2023/05/13 11:24:23;;;;;;;9.02;3.05;;;;;;;;;;5064379;28;20040;-75
2023/05/13 11:26:49;;;;;;;6.32;3.25;;;;;;;;;;5067188;28;20135;-75
2023/05/13 11:29:27;;;;;;;8.13;3.10;;;;;;;;;;5076322;28;20046;-75
2023/05/13 11:31:55;;;;;;;5.85;3.03;;;;;;;;;;5081032;28;20139;-74
2023/05/13 11:34:21;;;;;;;14.95;3.30;;;;;;;;;;5076978;28;20064;-74
2023/05/13 11:36:49;;;;;;;15.98;3.50;;;;;;;;;;5078264;28;20138;-74
2023/05/13 11:39:20;;;;;;;5.88;2.95;;;;;;;;;;5094772;28;20044;-75
2023/05/13 11:41:47;;;;;;;8.73;3.30;;;;;;;;;;5077550;28;20051;-75
2023/05/13 11:44:16;;;;;;;11.10;3.10;;;;;;;;;;5075405;28;20052;-75
2023/05/13 11:47:08;;;;;;;7.25;3.10;;;;;;;;;;5088708;28;20056;-75
2023/05/13 11:49:44;;;;;;;4.13;2.90;;;;;;;;;;5067209;28;20504;-75
2023/05/13 11:52:17;;;;;;;7.43;2.63;;;;;;;;;;5056348;28;20056;-75
2023/05/13 11:54:48;;;;;;;9.05;3.03;;;;;;;;;;5077658;28;20044;-74
2023/05/13 11:57:17;;;;;;;10.07;3.20;;;;;;;;;;5060023;28;20040;-75
2023/05/13 11:59:50;;;;;;;7.65;3.03;;;;;;;;;;5069150;28;20097;-76
2023/05/13 12:02:15;;;;;;;8.07;2.97;;;;;;;;;;5089507;28;20054;-75
2023/05/13 12:04:44;;;;;;;6.78;3.00;;;;;;;;;;5066355;28;20048;-75
2023/05/13 12:07:13;;;;;;;8.35;2.63;;;;;;;;;;5067826;28;20044;-75
2023/05/13 12:09:39;;;;;;;6.15;2.72;;;;;;;;;;5072613;28;20044;-75
2023/05/13 12:12:05;;;;;;;7.07;2.80;;;;;;;;;;5063965;28;20059;-74
2023/05/13 12:14:32;;;;;;;10.52;3.13;;;;;;;;;;5070565;28;20037;-75
2023/05/13 12:16:58;;;;;;;7.80;3.13;;;;;;;;;;5051498;28;20096;-77
2023/05/13 12:19:24;;;;;;;4.65;2.40;;;;;;;;;;5073649;28;20064;-76
2023/05/13 12:21:50;;;;;;;6.80;2.55;;;;;;;;;;5079084;28;20747;-75
2023/05/13 12:24:19;;;;;;;6.75;2.30;;;;;;;;;;5070304;28;20079;-76
2023/05/13 12:26:45;;;;;;;6.15;2.25;;;;;;;;;;5073676;28;20044;-77
2023/05/13 12:29:12;;;;;;;7.78;2.47;;;;;;;;;;5084868;28;20040;-76
2023/05/13 12:31:38;;;;;;;6.45;2.72;;;;;;;;;;5077424;28;20752;-75
2023/05/13 12:34:05;;;;;;;5.10;2.30;;;;;;;;;;5069657;28;20081;-75
2023/05/13 12:36:32;;;;;;;12.32;2.60;;;;;;;;;;5088064;27;20153;-75
2023/05/13 12:38:58;;;;;;;7.23;2.87;;;;;;;;;;5064920;28;20047;-75
2023/05/13 12:41:25;;;;;;;9.25;2.38;;;;;;;;;;5074136;28;20499;-76
2023/05/13 12:44:01;;;;;;;8.40;2.60;;;;;;;;;;5096043;27;20044;-75
2023/05/13 12:46:27;;;;;;;5.07;2.33;;;;;;;;;;5056109;28;20043;-75
2023/05/13 12:49:00;;;;;;;11.65;2.38;;;;;;;;;;5073930;28;20795;-74
2023/05/13 12:51:28;;;;;;;5.20;2.25;;;;;;;;;;5074318;28;20044;-76
2023/05/13 12:53:54;;;;;;;6.78;2.08;;;;;;;;;;5069918;28;20474;-77
2023/05/13 12:56:24;;;;;;;10.00;2.33;;;;;;;;;;5074971;28;20255;-76
2023/05/13 12:58:55;;;;;;;3.00;2.00;;;;;;;;;;5092654;28;20134;-76
2023/05/13 13:01:21;;;;;;;5.88;2.50;;;;;;;;;;5072555;28;20174;-76
2023/05/13 13:03:47;;;;;;;8.27;2.35;;;;;;;;;;5072092;28;20153;-76
2023/05/13 13:06:13;;;;;;;6.15;2.20;;;;;;;;;;5076028;28;20170;-76
2023/05/13 13:08:39;;;;;;;8.70;2.50;;;;;;;;;;5074766;28;20043;-77
2023/05/13 13:11:06;;;;;;;7.78;2.65;;;;;;;;;;5069625;28;21363;-76
2023/05/13 13:13:32;;;;;;;8.07;2.42;;;;;;;;;;5072158;28;20131;-76
2023/05/13 13:16:01;;;;;;;7.05;2.50;;;;;;;;;;5070913;28;20036;-77
2023/05/13 13:18:27;;;;;;;8.80;2.30;;;;;;;;;;5074804;28;20051;-76
2023/05/13 13:20:54;;;;;;;6.97;2.50;;;;;;;;;;5069763;28;20044;-76
2023/05/13 13:23:20;;;;;;;8.03;2.70;;;;;;;;;;5072384;28;20503;-77
2023/05/13 13:25:46;;;;;;;5.30;2.33;;;;;;;;;;5070061;28;20051;-77
2023/05/13 13:28:12;;;;;;;7.80;2.60;;;;;;;;;;5070569;28;20091;-78
2023/05/13 13:30:44;;;;;;;8.57;2.40;;;;;;;;;;5074283;28;20040;-76
2023/05/13 13:33:10;;;;;;;5.47;2.42;;;;;;;;;;5071337;28;20048;-76
2023/05/13 13:35:36;;;;;;;7.55;2.38;;;;;;;;;;5071300;28;20109;-76
2023/05/13 13:38:02;;;;;;;6.82;2.15;;;;;;;;;;5067809;28;20097;-76
2023/05/13 13:40:28;;;;;;;7.63;2.10;;;;;;;;;;5072951;28;20047;-76
2023/05/13 13:42:54;;;;;;;8.15;2.25;;;;;;;;;;5067193;28;20051;-78
2023/05/13 13:45:22;;;;;;;4.22;2.33;;;;;;;;;;5066950;28;20054;-77
2023/05/13 13:47:50;;;;;;;10.23;2.60;;;;;;;;;;5089406;27;20072;-78
2023/05/13 13:50:16;;;;;;;5.90;2.40;;;;;;;;;;5075045;28;20416;-76
2023/05/13 13:52:42;;;;;;;5.72;2.72;;;;;;;;;;5076023;28;20052;-77
2023/05/13 13:55:10;;;;;;;10.40;2.72;;;;;;;;;;5068184;28;20363;-77
2023/05/13 13:57:36;;;;;;;12.07;2.60;;;;;;;;;;5071665;28;20048;-78
2023/05/13 14:00:02;;;;;;;7.97;2.78;;;;;;;;;;5072554;28;20044;-76
2023/05/13 14:02:28;;;;;;;4.93;2.70;;;;;;;;;;5054347;28;20040;-75
2023/05/13 14:04:54;;;;;;;7.97;2.85;;;;;;;;;;5069838;28;20549;-78
2023/05/13 14:07:20;;;;;;;12.52;2.92;;;;;;;;;;5079799;28;20048;-79
2023/05/13 14:09:46;;;;;;;6.57;2.90;;;;;;;;;;5069631;28;20048;-78
2023/05/13 14:12:12;;;;;;;11.63;2.55;;;;;;;;;;5073280;28;20411;-78
2023/05/13 14:14:38;;;;;;;6.72;2.50;;;;;;;;;;5053663;28;20083;-76
2023/05/13 14:17:04;;;;;;;6.35;3.00;;;;;;;;;;5109455;27;20151;-76
2023/05/13 14:19:30;;;;;;;8.98;3.05;;;;;;;;;;5076247;28;20075;-77
2023/05/13 14:21:56;;;;;;;5.20;2.80;;;;;;;;;;5078300;28;20055;-77
2023/05/13 14:24:22;;;;;;;9.70;2.92;;;;;;;;;;5071760;28;20048;-75
2023/05/13 14:26:48;;;;;;;9.15;3.08;;;;;;;;;;5071129;28;20054;-77